Time;durP1;ratioP1;P1;durP2;ratioP2;P2;SDS_P1;SDS_P2;PMS_P1;PMS_P2;Temp;Humidity;BMP_temperature;BMP_pressure;BME280_temperature;BME280_humidity;BME280_pressure;Samples;Min_cycle;Max_cycle;Signal;HPM_P1;HPM_P2
2022/11/19 00:01:26;;;;;;;;;;;5.90;99.90;;;;;;5095100;28;19989;-34
2022/11/19 00:03:52;;;;;;;;;;;5.80;99.90;;;;;;5091965;28;19908;-32
2022/11/19 00:06:21;;;;;;;;;;;5.80;99.90;;;;;;5094988;28;19915;-33
2022/11/19 00:08:47;;;;;;;;;;;5.80;99.90;;;;;;5094899;28;19908;-33
2022/11/19 00:12:53;;;;;;;;;;;5.80;99.90;;;;;;5094761;28;19953;-32
2022/11/19 00:14:02;;;;;;;;;;;5.80;99.90;;;;;;5094789;28;19908;-31
2022/11/19 00:16:28;;;;;;;;;;;5.80;99.90;;;;;;5094760;28;19946;-32
2022/11/19 00:18:53;;;;;;;;;;;5.80;99.90;;;;;;5094753;28;19908;-33
2022/11/19 00:21:19;;;;;;;;;;;5.80;99.90;;;;;;5094731;28;19908;-35
2022/11/19 00:23:44;;;;;;;;;;;5.80;99.90;;;;;;5094631;28;20356;-34
2022/11/19 00:26:11;;;;;;;;;;;5.80;99.90;;;;;;5094553;28;19915;-34
2022/11/19 00:28:37;;;;;;;;;;;5.70;99.90;;;;;;5094556;28;19908;-37
2022/11/19 00:31:03;;;;;;;;;;;5.80;99.90;;;;;;5094685;28;20386;-33
2022/11/19 00:33:29;;;;;;;;;;;5.70;99.90;;;;;;5094371;28;19907;-31
2022/11/19 00:35:55;;;;;;;;;;;5.70;99.90;;;;;;5094389;28;20379;-31
2022/11/19 00:38:21;;;;;;;;;;;5.70;99.90;;;;;;5094648;28;20408;-31
2022/11/19 00:40:46;;;;;;;;;;;5.70;99.90;;;;;;5094616;28;19993;-46
2022/11/19 00:45:56;;;;;;;;;;;5.70;99.90;;;;;;5094239;28;20382;-35
2022/11/19 00:48:21;;;;;;;;;;;5.60;99.90;;;;;;5094180;28;19908;-31
2022/11/19 00:50:47;;;;;;;;;;;5.60;99.90;;;;;;5094052;28;19912;-31
2022/11/19 00:53:12;;;;;;;;;;;5.50;99.90;;;;;;5094082;28;20434;-30
2022/11/19 00:55:38;;;;;;;;;;;5.50;99.90;;;;;;5094086;28;19958;-31
2022/11/19 00:58:03;;;;;;;;;;;5.50;99.90;;;;;;5094000;28;20363;-31
2022/11/19 01:00:29;;;;;;;;;;;5.40;99.90;;;;;;5093667;28;20007;-31
2022/11/19 01:02:54;;;;;;;;;;;5.30;99.90;;;;;;5094010;28;19908;-31
2022/11/19 01:05:20;;;;;;;;;;;5.30;99.90;;;;;;5093745;28;19908;-30
2022/11/19 01:07:45;;;;;;;;;;;5.40;99.90;;;;;;5109439;28;20319;-32
2022/11/19 01:10:11;;;;;;;;;;;5.30;99.90;;;;;;5093369;28;20318;-33
2022/11/19 01:13:33;;;;;;;;;;;5.30;99.90;;;;;;5093723;28;19946;-33
2022/11/19 01:15:22;;;;;;;;;;;5.20;99.90;;;;;;5093449;28;19916;-40
2022/11/19 01:17:47;;;;;;;;;;;5.10;99.90;;;;;;5093645;28;20291;-37
2022/11/19 01:20:13;;;;;;;;;;;5.20;99.90;;;;;;5093684;28;19919;-39
2022/11/19 01:22:38;;;;;;;;;;;5.10;99.90;;;;;;5093486;28;19908;-39
2022/11/19 01:25:04;;;;;;;;;;;5.20;99.90;;;;;;5093713;28;19959;-42
2022/11/19 01:27:30;;;;;;;;;;;5.20;99.90;;;;;;5093570;28;19908;-39
2022/11/19 01:29:55;;;;;;;;;;;5.20;99.90;;;;;;5093661;28;19915;-39
2022/11/19 01:32:21;;;;;;;;;;;5.30;99.90;;;;;;5093554;28;20048;-45
2022/11/19 01:34:48;;;;;;;;;;;5.30;99.90;;;;;;5093424;28;20002;-39
2022/11/19 01:37:14;;;;;;;;;;;5.20;99.90;;;;;;5093771;28;20374;-39
2022/11/19 01:39:39;;;;;;;;;;;5.20;99.90;;;;;;5093546;28;19908;-37
2022/11/19 01:42:48;;;;;;;;;;;5.20;99.90;;;;;;5093350;28;20428;-39
2022/11/19 01:45:04;;;;;;;;;;;5.10;99.90;;;;;;5092416;28;19908;-41
2022/11/19 01:47:30;;;;;;;;;;;5.10;99.90;;;;;;5093775;28;19908;-40
2022/11/19 01:49:55;;;;;;;;;;;5.10;99.90;;;;;;5093226;28;20370;-39
2022/11/19 01:52:21;;;;;;;;;;;5.10;99.90;;;;;;5093309;28;20406;-38
2022/11/19 01:54:48;;;;;;;;;;;5.10;99.90;;;;;;5093372;28;19915;-40
2022/11/19 01:57:15;;;;;;;;;;;5.10;99.90;;;;;;5093349;28;19914;-41
2022/11/19 01:59:41;;;;;;;;;;;5.00;99.90;;;;;;5093344;28;19961;-40
2022/11/19 02:02:06;;;;;;;;;;;5.00;99.90;;;;;;5093348;28;19999;-39
2022/11/19 02:04:32;;;;;;;;;;;5.00;99.90;;;;;;5108604;28;20392;-40
2022/11/19 02:06:58;;;;;;;;;;;5.00;99.90;;;;;;5093188;28;19966;-41
2022/11/19 02:09:25;;;;;;;;;;;5.00;99.90;;;;;;5093160;28;19940;-39
2022/11/19 02:12:01;;;;;;;;;;;5.00;99.90;;;;;;5093053;28;19912;-43
2022/11/19 02:14:29;;;;;;;;;;;5.00;99.90;;;;;;5093460;28;19931;-40
2022/11/19 02:17:00;;;;;;;;;;;5.00;99.90;;;;;;5093036;28;19908;-39
2022/11/19 02:19:44;;;;;;;;;;;5.00;99.90;;;;;;5093041;28;19953;-44
2022/11/19 02:22:10;;;;;;;;;;;5.00;99.90;;;;;;5094088;28;19915;-41
2022/11/19 02:24:52;;;;;;;;;;;4.90;99.90;;;;;;5097025;28;20363;-40
2022/11/19 02:27:27;;;;;;;;;;;4.80;99.90;;;;;;5097262;28;19914;-40
2022/11/19 02:30:01;;;;;;;;;;;4.80;99.90;;;;;;5096945;28;19916;-39
2022/11/19 02:32:56;;;;;;;;;;;4.90;99.90;;;;;;5096806;28;19978;-40
2022/11/19 02:35:24;;;;;;;;;;;4.90;99.90;;;;;;5083487;28;19908;-40
2022/11/19 02:37:57;;;;;;;;;;;4.90;99.90;;;;;;5096800;28;19912;-41
2022/11/19 02:40:24;;;;;;;;;;;4.90;99.90;;;;;;5096707;28;19934;-40
2022/11/19 02:42:58;;;;;;;;;;;4.90;99.90;;;;;;5096764;28;20372;-42
2022/11/19 02:45:26;;;;;;;;;;;5.00;99.90;;;;;;5096877;28;20368;-40
2022/11/19 02:47:54;;;;;;;;;;;4.90;99.90;;;;;;5096627;28;20419;-42
2022/11/19 02:50:20;;;;;;;;;;;4.90;99.90;;;;;;5096863;28;20287;-44
2022/11/19 02:52:47;;;;;;;;;;;4.80;99.90;;;;;;5096477;28;19919;-43
2022/11/19 02:55:17;;;;;;;;;;;4.80;99.90;;;;;;5096767;28;20359;-40
2022/11/19 02:57:44;;;;;;;;;;;4.80;99.90;;;;;;5096374;28;19908;-42
2022/11/19 03:05:44;;;;;;;;;;;4.80;99.90;;;;;;5096261;28;19930;-40
2022/11/19 03:08:09;;;;;;;;;;;4.80;99.90;;;;;;5096241;28;19908;-39
2022/11/19 03:10:42;;;;;;;;;;;4.80;99.90;;;;;;5096089;28;20261;-40
2022/11/19 03:19:12;;;;;;;;;;;4.60;99.90;;;;;;5101579;28;19915;-38
2022/11/19 03:21:38;;;;;;;;;;;4.60;99.90;;;;;;5079773;28;19907;-38
2022/11/19 03:24:15;;;;;;;;;;;4.60;99.90;;;;;;5107536;28;20348;-40
2022/11/19 03:26:53;;;;;;;;;;;4.60;99.90;;;;;;5095816;28;19904;-41
2022/11/19 03:29:18;;;;;;;;;;;4.60;99.90;;;;;;5095308;28;20462;-41
2022/11/19 03:31:50;;;;;;;;;;;4.50;99.90;;;;;;5095459;28;19912;-42
2022/11/19 03:34:17;;;;;;;;;;;4.50;99.90;;;;;;5095798;28;20418;-41
2022/11/19 03:36:43;;;;;;;;;;;4.50;99.90;;;;;;5100523;28;19915;-41
2022/11/19 03:39:11;;;;;;;;;;;4.50;99.90;;;;;;5094832;28;20352;-40
2022/11/19 03:41:38;;;;;;;;;;;4.50;99.90;;;;;;5093807;28;19904;-34
2022/11/19 03:44:06;;;;;;;;;;;4.50;99.90;;;;;;5114170;28;19904;-40
2022/11/19 03:46:34;;;;;;;;;;;4.50;99.90;;;;;;5104394;28;19911;-39
2022/11/19 03:49:01;;;;;;;;;;;4.40;99.90;;;;;;5094744;28;19954;-43
2022/11/19 03:51:39;;;;;;;;;;;4.30;99.90;;;;;;5100866;28;19912;-40
2022/11/19 03:54:05;;;;;;;;;;;4.30;99.90;;;;;;5108958;28;19908;-34
2022/11/19 03:56:33;;;;;;;;;;;4.30;99.90;;;;;;5093897;28;19957;-35
2022/11/19 03:58:59;;;;;;;;;;;4.40;99.90;;;;;;5100134;28;20352;-37
2022/11/19 04:01:24;;;;;;;;;;;4.40;99.90;;;;;;5108270;28;19998;-39
2022/11/19 04:06:34;;;;;;;;;;;4.40;99.90;;;;;;5110576;28;19961;-41
2022/11/19 04:08:59;;;;;;;;;;;4.40;99.90;;;;;;5102706;28;19908;-40
2022/11/19 04:11:25;;;;;;;;;;;4.40;99.90;;;;;;5104917;28;19915;-39
2022/11/19 04:13:50;;;;;;;;;;;4.30;99.90;;;;;;5105233;28;20364;-41
2022/11/19 04:16:16;;;;;;;;;;;4.30;99.90;;;;;;5100895;28;19908;-40
2022/11/19 04:18:41;;;;;;;;;;;4.30;99.90;;;;;;5109146;28;20283;-40
2022/11/19 04:21:07;;;;;;;;;;;4.20;99.90;;;;;;5109231;28;19911;-40
2022/11/19 04:23:32;;;;;;;;;;;4.20;99.90;;;;;;5111983;28;19955;-43
2022/11/19 04:25:58;;;;;;;;;;;4.20;99.90;;;;;;5113927;28;19995;-40
2022/11/19 04:28:23;;;;;;;;;;;4.10;99.90;;;;;;5114963;28;19908;-39
2022/11/19 04:30:49;;;;;;;;;;;4.10;99.90;;;;;;5107546;28;20351;-39
2022/11/19 04:33:14;;;;;;;;;;;4.00;99.90;;;;;;5094146;28;19915;-41
2022/11/19 04:35:43;;;;;;;;;;;4.00;99.90;;;;;;5094412;28;20330;-44
2022/11/19 04:38:08;;;;;;;;;;;4.00;99.90;;;;;;5111101;28;20359;-40
2022/11/19 04:40:34;;;;;;;;;;;4.00;99.90;;;;;;5114920;28;19904;-41
2022/11/19 04:42:59;;;;;;;;;;;4.00;99.90;;;;;;5111878;28;20309;-39
2022/11/19 04:45:26;;;;;;;;;;;3.90;99.90;;;;;;5107802;28;19940;-55
2022/11/19 04:47:51;;;;;;;;;;;3.90;99.90;;;;;;5105337;28;19904;-32
2022/11/19 04:50:16;;;;;;;;;;;3.80;99.90;;;;;;5104454;28;19930;-33
2022/11/19 04:52:42;;;;;;;;;;;3.80;99.90;;;;;;5098177;28;19915;-38
2022/11/19 04:55:09;;;;;;;;;;;3.70;99.90;;;;;;5103605;28;19929;-42
2022/11/19 04:57:34;;;;;;;;;;;3.70;99.90;;;;;;5103912;28;20359;-37
2022/11/19 05:00:00;;;;;;;;;;;3.60;99.90;;;;;;5093766;28;19923;-32
2022/11/19 05:02:25;;;;;;;;;;;3.60;99.90;;;;;;5093319;28;20367;-34
2022/11/19 05:04:51;;;;;;;;;;;3.50;99.90;;;;;;5096453;28;19938;-35
2022/11/19 05:07:16;;;;;;;;;;;3.50;99.90;;;;;;5095198;28;19912;-33
2022/11/19 05:09:42;;;;;;;;;;;3.50;99.90;;;;;;5093719;28;19955;-38
2022/11/19 05:12:07;;;;;;;;;;;3.50;99.90;;;;;;5119425;27;19946;-36
2022/11/19 05:14:33;;;;;;;;;;;3.50;99.90;;;;;;5094010;28;20345;-37
2022/11/19 05:16:58;;;;;;;;;;;3.50;99.90;;;;;;5098255;28;19915;-32
2022/11/19 05:19:24;;;;;;;;;;;3.50;99.90;;;;;;5105025;28;19912;-37
2022/11/19 05:21:49;;;;;;;;;;;3.60;99.90;;;;;;5095465;28;19912;-35
2022/11/19 05:24:17;;;;;;;;;;;3.60;99.90;;;;;;5102638;28;19907;-36
2022/11/19 05:26:43;;;;;;;;;;;3.60;99.90;;;;;;5097092;28;19912;-47
2022/11/19 05:29:08;;;;;;;;;;;3.60;99.90;;;;;;5105112;28;20382;-51
2022/11/19 05:31:33;;;;;;;;;;;3.60;99.90;;;;;;5110407;28;19920;-38
2022/11/19 05:33:59;;;;;;;;;;;3.60;99.90;;;;;;5092973;28;19915;-33
2022/11/19 05:36:24;;;;;;;;;;;3.50;99.90;;;;;;5103277;28;19908;-34
2022/11/19 05:38:50;;;;;;;;;;;3.40;99.90;;;;;;5093489;28;20348;-35
2022/11/19 05:41:15;;;;;;;;;;;3.40;99.90;;;;;;5093058;28;20006;-35
2022/11/19 05:43:41;;;;;;;;;;;3.40;99.90;;;;;;5105753;28;20279;-36
2022/11/19 05:46:06;;;;;;;;;;;3.40;99.90;;;;;;5102568;28;19999;-38
2022/11/19 05:48:32;;;;;;;;;;;3.40;99.90;;;;;;5101023;28;19919;-36
2022/11/19 05:50:57;;;;;;;;;;;3.30;99.90;;;;;;5099020;28;20006;-41
2022/11/19 05:53:23;;;;;;;;;;;3.30;99.90;;;;;;5093115;28;19915;-36
2022/11/19 05:55:48;;;;;;;;;;;3.30;99.90;;;;;;5093798;28;19922;-36
2022/11/19 05:58:14;;;;;;;;;;;3.30;99.90;;;;;;5097499;28;19904;-39
2022/11/19 06:00:39;;;;;;;;;;;3.40;99.90;;;;;;5100009;28;19916;-36
2022/11/19 06:03:05;;;;;;;;;;;3.30;99.90;;;;;;5110441;28;19960;-38
2022/11/19 06:05:30;;;;;;;;;;;3.40;99.90;;;;;;5111095;28;19962;-40
2022/11/19 06:07:56;;;;;;;;;;;3.30;99.90;;;;;;5105335;28;19903;-37
2022/11/19 06:10:21;;;;;;;;;;;3.30;99.90;;;;;;5117711;28;19911;-58
2022/11/19 06:12:47;;;;;;;;;;;3.30;99.90;;;;;;5106906;28;20356;-43
2022/11/19 06:15:13;;;;;;;;;;;3.30;99.90;;;;;;5097232;28;19908;-49
2022/11/19 06:17:38;;;;;;;;;;;3.30;99.90;;;;;;5095474;28;19912;-42
2022/11/19 06:20:07;;;;;;;;;;;3.20;99.90;;;;;;5097194;28;19904;-41
2022/11/19 06:22:33;;;;;;;;;;;3.20;99.90;;;;;;5110063;28;20295;-43
2022/11/19 06:24:59;;;;;;;;;;;3.20;99.90;;;;;;5108528;28;19955;-43
2022/11/19 06:27:24;;;;;;;;;;;3.20;99.90;;;;;;5099731;28;20331;-42
2022/11/19 06:29:50;;;;;;;;;;;3.20;99.90;;;;;;5105705;28;19908;-44
2022/11/19 06:32:15;;;;;;;;;;;3.20;99.90;;;;;;5101293;28;19912;-43
2022/11/19 06:34:41;;;;;;;;;;;3.20;99.90;;;;;;5113202;28;19982;-44
2022/11/19 06:37:07;;;;;;;;;;;3.10;99.90;;;;;;5113005;28;19904;-43
2022/11/19 06:39:32;;;;;;;;;;;3.10;99.90;;;;;;5097031;28;19912;-41
2022/11/19 06:42:34;;;;;;;;;;;3.10;99.90;;;;;;5096705;28;19904;-45
2022/11/19 06:44:43;;;;;;;;;;;3.10;99.90;;;;;;5096596;28;19908;-44
2022/11/19 06:47:09;;;;;;;;;;;3.10;99.90;;;;;;5105764;28;19914;-42
2022/11/19 06:49:34;;;;;;;;;;;3.00;99.90;;;;;;5117172;28;19911;-46
2022/11/19 06:52:00;;;;;;;;;;;3.00;99.90;;;;;;5116780;28;19907;-43
2022/11/19 06:54:25;;;;;;;;;;;3.10;99.90;;;;;;5116904;28;19911;-45
2022/11/19 06:56:51;;;;;;;;;;;3.00;99.90;;;;;;5114057;28;19904;-42
2022/11/19 06:59:16;;;;;;;;;;;3.10;99.90;;;;;;5096571;28;19904;-51
2022/11/19 07:01:41;;;;;;;;;;;3.10;99.90;;;;;;5096354;28;20540;-42
2022/11/19 07:04:07;;;;;;;;;;;3.10;99.90;;;;;;5101716;28;19904;-42
2022/11/19 07:06:32;;;;;;;;;;;3.00;99.90;;;;;;5116915;28;20363;-40
2022/11/19 07:08:58;;;;;;;;;;;2.90;99.90;;;;;;5115848;28;19947;-42
2022/11/19 07:11:27;;;;;;;;;;;2.90;99.90;;;;;;5115154;28;20010;-42
2022/11/19 07:13:59;;;;;;;;;;;2.90;99.90;;;;;;5107147;28;19918;-43
2022/11/19 07:16:25;;;;;;;;;;;2.90;99.90;;;;;;5123710;27;19964;-42
2022/11/19 07:18:51;;;;;;;;;;;2.80;99.90;;;;;;5104529;28;19903;-43
2022/11/19 07:21:16;;;;;;;;;;;2.80;99.90;;;;;;5115836;28;19910;-45
2022/11/19 07:23:42;;;;;;;;;;;2.80;99.90;;;;;;5104716;28;19908;-37
2022/11/19 07:26:07;;;;;;;;;;;2.70;99.90;;;;;;5095806;28;20314;-39
2022/11/19 07:28:33;;;;;;;;;;;2.80;99.90;;;;;;5095753;28;19962;-40
2022/11/19 07:31:03;;;;;;;;;;;2.80;99.90;;;;;;5095181;28;19961;-40
2022/11/19 07:33:28;;;;;;;;;;;2.80;99.90;;;;;;5095844;28;20344;-43
2022/11/19 07:35:54;;;;;;;;;;;2.80;99.90;;;;;;5107470;28;19919;-39
2022/11/19 07:38:19;;;;;;;;;;;2.80;99.90;;;;;;5108673;28;20419;-34
2022/11/19 07:40:51;;;;;;;;;;;2.80;99.90;;;;;;5115859;28;19904;-38
2022/11/19 07:43:16;;;;;;;;;;;2.90;99.90;;;;;;5115914;28;20356;-39
2022/11/19 07:45:42;;;;;;;;;;;2.80;99.90;;;;;;5115873;28;19907;-37
2022/11/19 07:48:07;;;;;;;;;;;2.80;99.90;;;;;;5098977;28;19908;-42
2022/11/19 07:50:33;;;;;;;;;;;2.80;99.90;;;;;;5106112;28;19904;-46
2022/11/19 07:52:59;;;;;;;;;;;2.80;99.90;;;;;;5108665;28;19935;-43
2022/11/19 07:55:24;;;;;;;;;;;2.80;99.90;;;;;;5107164;28;19915;-42
2022/11/19 07:57:51;;;;;;;;;;;2.90;99.90;;;;;;5105624;28;19933;-48
2022/11/19 08:00:17;;;;;;;;;;;2.90;99.90;;;;;;5098139;28;20368;-44
2022/11/19 08:02:43;;;;;;;;;;;3.00;99.90;;;;;;5103704;28;19950;-44
2022/11/19 08:05:08;;;;;;;;;;;2.90;99.90;;;;;;5099833;28;20339;-42
2022/11/19 08:07:35;;;;;;;;;;;3.00;99.90;;;;;;5103039;28;20010;-42
2022/11/19 08:10:01;;;;;;;;;;;3.00;99.90;;;;;;5105501;28;20360;-37
2022/11/19 08:12:27;;;;;;;;;;;3.00;99.90;;;;;;5114442;28;19936;-39
2022/11/19 08:14:53;;;;;;;;;;;3.10;99.90;;;;;;5100928;28;19919;-38
2022/11/19 08:20:02;;;;;;;;;;;3.00;99.90;;;;;;5101422;28;19919;-41
2022/11/19 08:22:28;;;;;;;;;;;3.10;99.90;;;;;;5101399;28;19908;-36
2022/11/19 08:24:54;;;;;;;;;;;3.00;99.90;;;;;;5111550;28;19915;-43
2022/11/19 08:27:19;;;;;;;;;;;3.00;99.90;;;;;;5103446;28;19904;-39
2022/11/19 08:29:45;;;;;;;;;;;2.90;99.90;;;;;;5097161;28;19904;-41
2022/11/19 08:32:10;;;;;;;;;;;2.80;99.90;;;;;;5097134;28;20344;-38
2022/11/19 08:34:36;;;;;;;;;;;2.70;99.90;;;;;;5114730;28;19908;-42
2022/11/19 08:37:01;;;;;;;;;;;2.70;99.90;;;;;;5103942;28;20329;-45
2022/11/19 08:39:27;;;;;;;;;;;2.80;99.90;;;;;;5114805;28;19994;-46
2022/11/19 08:44:36;;;;;;;;;;;2.70;99.90;;;;;;5114621;28;19911;-41
2022/11/19 08:47:01;;;;;;;;;;;2.70;99.90;;;;;;5114687;28;20055;-44
2022/11/19 08:49:27;;;;;;;;;;;2.70;99.90;;;;;;5102444;28;19915;-45
2022/11/19 08:51:52;;;;;;;;;;;2.60;99.90;;;;;;5114543;28;19919;-46
2022/11/19 08:54:18;;;;;;;;;;;2.60;99.90;;;;;;5113230;28;19904;-48
2022/11/19 08:56:43;;;;;;;;;;;2.50;99.90;;;;;;5114414;28;19904;-43
2022/11/19 08:59:09;;;;;;;;;;;2.40;99.90;;;;;;5110248;28;20310;-40
2022/11/19 09:01:34;;;;;;;;;;;2.40;99.90;;;;;;5112351;28;19912;-43
2022/11/19 09:04:00;;;;;;;;;;;2.40;99.90;;;;;;5107452;28;19976;-43
2022/11/19 09:06:26;;;;;;;;;;;2.30;99.90;;;;;;5114634;28;19910;-43
2022/11/19 09:08:51;;;;;;;;;;;2.30;99.90;;;;;;5114263;28;19904;-43
2022/11/19 09:11:18;;;;;;;;;;;2.40;99.90;;;;;;5114205;28;20279;-47
2022/11/19 09:13:43;;;;;;;;;;;2.50;99.90;;;;;;5103275;28;19947;-43
2022/11/19 09:16:10;;;;;;;;;;;2.50;99.90;;;;;;5104449;28;19943;-41
2022/11/19 09:18:38;;;;;;;;;;;2.40;99.90;;;;;;5108425;28;19908;-43
2022/11/19 09:21:04;;;;;;;;;;;2.30;99.90;;;;;;5110911;28;19914;-45
2022/11/19 09:23:29;;;;;;;;;;;2.30;99.90;;;;;;5098899;28;19904;-42
2022/11/19 09:26:03;;;;;;;;;;;2.30;99.90;;;;;;5102362;28;20366;-43
2022/11/19 09:28:29;;;;;;;;;;;2.30;99.90;;;;;;5106690;28;19904;-48
2022/11/19 09:30:56;;;;;;;;;;;2.30;99.90;;;;;;5113618;28;20378;-48
2022/11/19 09:33:21;;;;;;;;;;;2.30;99.90;;;;;;5105598;28;19904;-45
2022/11/19 09:35:47;;;;;;;;;;;2.40;99.90;;;;;;5126952;27;19918;-46
2022/11/19 09:38:12;;;;;;;;;;;2.40;99.90;;;;;;5113770;28;19907;-45
2022/11/19 09:40:42;;;;;;;;;;;2.40;99.90;;;;;;5113442;28;19907;-45
2022/11/19 09:43:15;;;;;;;;;;;2.50;99.90;;;;;;5113788;28;19904;-43
2022/11/19 09:45:47;;;;;;;;;;;2.60;99.90;;;;;;5113803;28;19949;-43
2022/11/19 09:48:21;;;;;;;;;;;2.70;99.90;;;;;;5108591;28;20372;-43
2022/11/19 09:50:58;;;;;;;;;;;2.70;99.90;;;;;;5093287;28;19904;-44
2022/11/19 09:53:29;;;;;;;;;;;2.70;99.90;;;;;;5106966;28;20102;-43
2022/11/19 09:55:54;;;;;;;;;;;2.70;99.90;;;;;;5093121;28;19908;-44
2022/11/19 09:58:29;;;;;;;;;;;2.70;99.90;;;;;;5095543;28;19908;-42
2022/11/19 10:00:55;;;;;;;;;;;2.70;99.90;;;;;;5107927;28;19915;-44
2022/11/19 10:03:22;;;;;;;;;;;2.60;99.90;;;;;;5093930;28;19987;-45
2022/11/19 10:05:57;;;;;;;;;;;2.60;99.90;;;;;;5106127;28;19907;-45
2022/11/19 10:08:25;;;;;;;;;;;2.60;99.90;;;;;;5099856;28;19919;-44
2022/11/19 10:11:04;;;;;;;;;;;2.70;99.90;;;;;;5105109;28;20348;-50
2022/11/19 10:13:35;;;;;;;;;;;2.70;99.90;;;;;;5099210;28;20428;-44
2022/11/19 10:16:09;;;;;;;;;;;2.70;99.90;;;;;;5095245;28;19908;-51
2022/11/19 10:18:53;;;;;;;;;;;2.80;99.90;;;;;;5096263;28;20278;-44
2022/11/19 10:21:45;;;;;;;;;;;2.90;99.90;;;;;;5096854;28;19952;-48
2022/11/19 10:24:17;;;;;;;;;;;3.00;99.90;;;;;;5096326;28;19962;-43
2022/11/19 10:27:09;;;;;;;;;;;3.10;99.90;;;;;;5093162;28;20359;-45
2022/11/19 10:29:36;;;;;;;;;;;3.20;99.90;;;;;;5105738;28;19911;-46
2022/11/19 10:32:21;;;;;;;;;;;3.20;99.90;;;;;;5095920;28;19920;-46
2022/11/19 10:34:47;;;;;;;;;;;3.30;99.90;;;;;;5092605;28;20377;-44
2022/11/19 10:37:17;;;;;;;;;;;3.30;99.90;;;;;;5093217;28;19908;-40
2022/11/19 10:39:54;;;;;;;;;;;3.30;99.90;;;;;;5101444;28;20317;-38
2022/11/19 10:42:28;;;;;;;;;;;3.30;99.90;;;;;;5099869;28;19950;-43
2022/11/19 10:44:54;;;;;;;;;;;3.40;99.90;;;;;;5101656;28;19908;-38
2022/11/19 10:47:35;;;;;;;;;;;3.50;99.90;;;;;;5103693;28;19973;-42
2022/11/19 10:50:01;;;;;;;;;;;3.60;99.90;;;;;;5099797;28;20367;-40
2022/11/19 10:52:26;;;;;;;;;;;3.70;99.90;;;;;;5098267;28;19918;-41
2022/11/19 10:54:54;;;;;;;;;;;3.70;99.90;;;;;;5113633;28;20271;-47
2022/11/19 10:57:20;;;;;;;;;;;3.60;99.90;;;;;;5114857;28;20390;-44
2022/11/19 10:59:48;;;;;;;;;;;3.60;99.90;;;;;;5096389;28;19970;-42
2022/11/19 11:02:32;;;;;;;;;;;3.70;99.90;;;;;;5094446;28;20359;-40
2022/11/19 11:04:59;;;;;;;;;;;3.80;99.90;;;;;;5099250;28;19908;-48
2022/11/19 11:07:43;;;;;;;;;;;3.80;99.90;;;;;;5107781;28;19995;-44
2022/11/19 11:10:26;;;;;;;;;;;3.80;99.90;;;;;;5105901;28;20302;-42
2022/11/19 11:15:42;;;;;;;;;;;3.90;99.90;;;;;;5099865;28;19919;-40
2022/11/19 11:18:09;;;;;;;;;;;3.90;99.90;;;;;;5107169;27;20624;-37
2022/11/19 11:20:35;;;;;;;;;;;3.80;99.90;;;;;;5106156;28;19908;-42
2022/11/19 11:23:06;;;;;;;;;;;3.80;99.90;;;;;;5098743;28;20369;-44
2022/11/19 11:25:31;;;;;;;;;;;3.80;99.90;;;;;;5095975;28;19919;-44
2022/11/19 11:28:12;;;;;;;;;;;3.60;99.90;;;;;;5109202;28;19904;-44
2022/11/19 11:30:50;;;;;;;;;;;3.60;99.90;;;;;;5100091;28;20347;-44
2022/11/19 11:33:25;;;;;;;;;;;3.60;99.90;;;;;;5114972;28;19908;-44
2022/11/19 11:35:51;;;;;;;;;;;3.80;99.90;;;;;;5107921;28;20438;-45
2022/11/19 11:38:21;;;;;;;;;;;3.80;99.90;;;;;;5105035;28;20374;-43
2022/11/19 11:41:04;;;;;;;;;;;3.90;99.90;;;;;;5109578;28;19908;-44
2022/11/19 11:43:31;;;;;;;;;;;4.00;99.90;;;;;;5111303;28;19904;-42
2022/11/19 11:45:58;;;;;;;;;;;4.00;99.90;;;;;;5095469;28;19952;-49
2022/11/19 11:48:24;;;;;;;;;;;4.00;99.90;;;;;;5103798;28;19908;-45
2022/11/19 11:50:50;;;;;;;;;;;4.00;99.90;;;;;;5102219;28;19921;-39
2022/11/19 11:53:16;;;;;;;;;;;4.20;99.90;;;;;;5096470;28;20370;-38
2022/11/19 11:55:42;;;;;;;;;;;4.10;99.90;;;;;;5100434;28;19908;-41
2022/11/19 11:58:24;;;;;;;;;;;4.10;99.90;;;;;;5112467;28;19967;-43
2022/11/19 12:00:52;;;;;;;;;;;4.20;99.90;;;;;;5094765;28;20296;-39
2022/11/19 12:03:18;;;;;;;;;;;4.30;99.90;;;;;;5103782;28;20355;-41
2022/11/19 12:06:05;;;;;;;;;;;4.30;99.90;;;;;;5098380;28;19922;-36
2022/11/19 12:08:39;;;;;;;;;;;4.20;99.90;;;;;;5094890;28;19911;-32
2022/11/19 12:11:07;;;;;;;;;;;4.20;99.90;;;;;;5101511;28;20385;-39
2022/11/19 12:13:39;;;;;;;;;;;4.20;99.90;;;;;;5115403;28;19953;-39
2022/11/19 12:16:13;;;;;;;;;;;4.30;99.90;;;;;;5104075;28;20356;-44
2022/11/19 12:18:47;;;;;;;;;;;4.20;99.90;;;;;;5098948;28;19935;-47
2022/11/19 12:21:32;;;;;;;;;;;4.20;99.90;;;;;;5104534;28;20274;-46
2022/11/19 12:24:05;;;;;;;;;;;4.10;99.90;;;;;;5099448;28;20006;-44
2022/11/19 12:26:30;;;;;;;;;;;4.00;99.90;;;;;;5105500;28;19958;-44
2022/11/19 12:28:56;;;;;;;;;;;4.00;99.90;;;;;;5093495;28;19935;-46
2022/11/19 12:31:34;;;;;;;;;;;4.00;99.90;;;;;;5107684;28;20401;-43
2022/11/19 12:34:18;;;;;;;;;;;4.00;99.90;;;;;;5095587;28;19912;-43
2022/11/19 12:36:44;;;;;;;;;;;4.00;99.90;;;;;;5105472;28;20275;-46
2022/11/19 12:39:09;;;;;;;;;;;4.00;99.90;;;;;;5112950;28;19908;-42
2022/11/19 12:41:48;;;;;;;;;;;4.00;99.90;;;;;;5111093;28;19918;-41
2022/11/19 12:44:24;;;;;;;;;;;4.00;99.90;;;;;;5096205;28;19904;-44
2022/11/19 12:46:53;;;;;;;;;;;4.00;99.90;;;;;;5101290;28;19953;-38
2022/11/19 12:49:36;;;;;;;;;;;4.00;99.90;;;;;;5098860;27;19914;-59
2022/11/19 12:52:07;;;;;;;;;;;3.90;99.90;;;;;;5100281;28;19984;-46
2022/11/19 12:54:36;;;;;;;;;;;3.90;99.90;;;;;;5104676;28;20280;-43
2022/11/19 12:57:12;;;;;;;;;;;3.90;99.90;;;;;;5092860;28;19904;-41
2022/11/19 12:59:49;;;;;;;;;;;3.90;99.90;;;;;;5097774;28;19939;-50
2022/11/19 13:02:26;;;;;;;;;;;3.90;99.90;;;;;;5092917;28;20386;-37
2022/11/19 13:04:56;;;;;;;;;;;4.00;99.90;;;;;;5100397;28;20332;-32
2022/11/19 13:07:26;;;;;;;;;;;4.00;99.90;;;;;;5109363;28;20360;-45
2022/11/19 13:10:12;;;;;;;;;;;4.00;99.90;;;;;;5103554;28;19914;-41
2022/11/19 13:12:44;;;;;;;;;;;4.00;99.90;;;;;;5112627;28;19919;-44
2022/11/19 13:15:16;;;;;;;;;;;4.10;99.90;;;;;;5113346;28;19912;-39
2022/11/19 13:17:43;;;;;;;;;;;4.10;99.90;;;;;;5099319;28;19960;-39
2022/11/19 13:20:27;;;;;;;;;;;4.10;99.90;;;;;;5109493;28;19907;-38
2022/11/19 13:22:56;;;;;;;;;;;4.10;99.90;;;;;;5099009;28;20295;-38
2022/11/19 13:25:24;;;;;;;;;;;4.20;99.90;;;;;;5097261;28;20368;-45
2022/11/19 13:27:51;;;;;;;;;;;4.20;99.90;;;;;;5103629;28;19915;-38
2022/11/19 13:30:20;;;;;;;;;;;4.10;99.90;;;;;;5106764;28;20356;-38
2022/11/19 13:32:49;;;;;;;;;;;4.10;99.90;;;;;;5098561;28;19912;-41
2022/11/19 13:35:20;;;;;;;;;;;4.10;99.90;;;;;;5102188;28;20359;-41
2022/11/19 13:38:04;;;;;;;;;;;4.20;99.90;;;;;;5095884;28;20288;-40
2022/11/19 13:40:42;;;;;;;;;;;4.30;99.90;;;;;;5096440;28;19908;-44
2022/11/19 13:46:13;;;;;;;;;;;4.70;99.90;;;;;;5097267;28;19918;-37
2022/11/19 13:48:41;;;;;;;;;;;4.70;99.90;;;;;;5088371;28;19981;-40
2022/11/19 13:51:10;;;;;;;;;;;4.70;99.90;;;;;;5104979;28;19933;-38
2022/11/19 13:53:41;;;;;;;;;;;4.70;99.90;;;;;;5096045;28;19965;-42
2022/11/19 13:56:11;;;;;;;;;;;4.60;99.90;;;;;;5094303;28;19908;-40
2022/11/19 13:58:43;;;;;;;;;;;4.60;99.90;;;;;;5094465;28;20344;-46
2022/11/19 14:01:17;;;;;;;;;;;4.70;99.90;;;;;;5092529;28;19915;-40
2022/11/19 14:03:42;;;;;;;;;;;4.80;99.90;;;;;;5096581;28;20348;-41
2022/11/19 14:06:19;;;;;;;;;;;4.80;99.90;;;;;;5105250;28;19914;-42
2022/11/19 14:09:02;;;;;;;;;;;4.90;99.90;;;;;;5096921;28;20378;-45
2022/11/19 14:11:46;;;;;;;;;;;5.00;99.90;;;;;;5092894;28;19947;-44
2022/11/19 14:28:46;;;;;;;;;;;5.20;99.90;;;;;;5096924;28;19911;-42
2022/11/19 14:31:13;;;;;;;;;;;5.20;99.90;;;;;;5101124;28;20388;-43
2022/11/19 14:33:47;;;;;;;;;;;5.20;99.90;;;;;;5101526;27;19954;-45
2022/11/19 14:36:17;;;;;;;;;;;5.10;99.90;;;;;;5120785;27;19907;-41
2022/11/19 14:38:46;;;;;;;;;;;5.10;99.90;;;;;;5100810;28;19955;-45
2022/11/19 14:41:17;;;;;;;;;;;5.00;99.90;;;;;;5100341;28;20398;-38
2022/11/19 14:44:09;;;;;;;;;;;5.00;99.90;;;;;;5102845;28;20431;-37
2022/11/19 14:46:46;;;;;;;;;;;4.90;99.90;;;;;;5098828;28;19908;-39
2022/11/19 14:49:21;;;;;;;;;;;4.90;99.90;;;;;;5100982;28;19916;-41
2022/11/19 14:51:50;;;;;;;;;;;4.90;99.90;;;;;;5099025;28;19912;-44
2022/11/19 14:54:16;;;;;;;;;;;4.90;99.90;;;;;;5113291;28;20389;-40
2022/11/19 14:56:44;;;;;;;;;;;4.80;99.90;;;;;;5116792;28;19907;-42
2022/11/19 14:59:15;;;;;;;;;;;4.80;99.90;;;;;;5107507;28;20299;-42
2022/11/19 15:02:07;;;;;;;;;;;4.90;99.90;;;;;;5101291;28;19916;-36
2022/11/19 15:04:34;;;;;;;;;;;4.80;99.90;;;;;;5103722;28;19958;-45
2022/11/19 15:07:01;;;;;;;;;;;4.70;99.90;;;;;;5096291;28;20352;-40
2022/11/19 15:09:45;;;;;;;;;;;4.60;99.90;;;;;;5108293;28;19912;-37
2022/11/19 15:12:11;;;;;;;;;;;4.70;99.90;;;;;;5116528;28;20393;-39
2022/11/19 15:14:38;;;;;;;;;;;4.60;99.90;;;;;;5103992;28;19998;-43
2022/11/19 15:17:05;;;;;;;;;;;4.50;99.90;;;;;;5094848;28;19953;-38
2022/11/19 15:19:42;;;;;;;;;;;4.40;99.90;;;;;;5096271;28;19914;-38
2022/11/19 15:22:08;;;;;;;;;;;4.30;99.90;;;;;;5104023;28;20006;-40
2022/11/19 15:24:46;;;;;;;;;;;4.30;99.90;;;;;;5095049;28;19946;-44